Time;durP1;ratioP1;P1;durP2;ratioP2;P2;SDS_P1;SDS_P2;PMS_P1;PMS_P2;Temp;Humidity;BMP_temperature;BMP_pressure;BME280_temperature;BME280_humidity;BME280_pressure;Samples;Min_cycle;Max_cycle;Signal;HPM_P1;HPM_P2
2022/10/01 00:00:21;;;;;;;4.30;3.13;;;16.00;65.10;;;;;;4995603;28;20051;-73
2022/10/01 00:02:47;;;;;;;3.58;2.88;;;16.00;65.10;;;;;;4995420;28;20050;-72
2022/10/01 00:05:14;;;;;;;3.53;2.90;;;15.90;65.00;;;;;;4995635;28;20419;-73
2022/10/01 00:07:41;;;;;;;3.33;2.63;;;16.00;65.10;;;;;;4995546;28;20057;-73
2022/10/01 00:10:09;;;;;;;3.50;2.55;;;16.00;65.10;;;;;;4995205;28;20070;-72
2022/10/01 00:12:36;;;;;;;3.85;3.10;;;16.00;65.10;;;;;;4995085;28;20065;-72
2022/10/01 00:15:08;;;;;;;5.30;3.88;;;15.90;65.10;;;;;;4995786;28;20406;-72
2022/10/01 00:17:36;;;;;;;3.42;2.67;;;16.70;66.40;;;;;;4995492;28;20046;-72
2022/10/01 00:20:03;;;;;;;3.70;2.70;;;15.90;65.10;;;;;;4994261;28;20074;-72
2022/10/01 00:22:30;;;;;;;3.28;2.67;;;15.90;65.10;;;;;;4994077;28;20109;-73
2022/10/01 00:24:58;;;;;;;4.13;2.70;;;16.00;65.20;;;;;;4995357;28;20054;-73
2022/10/01 00:27:25;;;;;;;3.53;2.55;;;15.90;65.10;;;;;;4993698;28;20062;-72
2022/10/01 00:29:51;;;;;;;3.83;2.70;;;16.00;65.20;;;;;;4994990;28;20057;-73
2022/10/01 00:32:18;;;;;;;4.03;2.63;;;15.90;65.10;;;;;;4995327;28;20161;-73
2022/10/01 00:34:47;;;;;;;3.30;2.33;;;15.90;65.10;;;;;;4995239;28;20418;-72
2022/10/01 00:37:14;;;;;;;3.92;2.60;;;15.90;65.10;;;;;;4994911;28;20154;-73
2022/10/01 00:39:41;;;;;;;3.25;2.45;;;15.90;65.10;;;;;;4994726;28;20056;-72
2022/10/01 00:42:16;;;;;;;2.60;2.30;;;15.90;65.10;;;;;;4994858;28;20491;-73
2022/10/01 00:44:43;;;;;;;3.15;2.65;;;16.00;65.20;;;;;;4994895;28;20061;-72
2022/10/01 00:47:15;;;;;;;3.53;2.50;;;15.90;65.10;;;;;;4993839;28;20445;-73
2022/10/01 00:49:42;;;;;;;4.00;2.78;;;15.90;65.10;;;;;;4994522;28;20488;-73
2022/10/01 00:52:12;;;;;;;3.35;2.55;;;15.90;65.20;;;;;;4993173;28;20058;-73
2022/10/01 00:54:41;;;;;;;3.08;2.42;;;15.90;65.20;;;;;;4994614;28;20050;-73
2022/10/01 00:57:07;;;;;;;3.42;2.55;;;15.90;65.20;;;;;;4993619;28;20054;-72
2022/10/01 00:59:34;;;;;;;3.33;2.70;;;15.90;65.20;;;;;;4994961;28;20066;-71
2022/10/01 01:02:01;;;;;;;3.08;2.40;;;15.90;65.20;;;;;;4994683;28;20065;-73
2022/10/01 01:04:28;;;;;;;3.17;2.28;;;15.90;65.20;;;;;;4993371;28;20053;-72
2022/10/01 01:06:56;;;;;;;3.10;2.60;;;15.90;65.20;;;;;;4994909;28;20511;-73
2022/10/01 01:09:26;;;;;;;3.33;2.53;;;15.90;65.20;;;;;;4993749;28;20056;-73
2022/10/01 01:11:56;;;;;;;2.97;2.40;;;15.90;65.20;;;;;;4994981;28;20058;-72
2022/10/01 01:14:25;;;;;;;3.65;2.53;;;15.90;65.30;;;;;;4995391;28;20133;-72
2022/10/01 01:16:54;;;;;;;2.85;2.35;;;15.90;65.30;;;;;;4993621;28;20060;-73
2022/10/01 01:19:29;;;;;;;3.40;2.47;;;15.90;65.30;;;;;;4993275;28;20060;-72
2022/10/01 01:21:59;;;;;;;3.53;2.70;;;15.90;65.30;;;;;;4994397;28;20061;-72
2022/10/01 01:24:35;;;;;;;3.53;2.58;;;15.90;65.30;;;;;;4993397;28;20058;-73
2022/10/01 01:27:15;;;;;;;3.20;2.30;;;15.80;65.20;;;;;;4994703;28;20059;-72
2022/10/01 01:29:44;;;;;;;3.28;2.40;;;15.90;65.30;;;;;;4993970;28;20459;-72
2022/10/01 01:32:12;;;;;;;3.40;2.40;;;15.80;65.30;;;;;;4992413;28;20058;-72
2022/10/01 01:34:39;;;;;;;3.20;2.60;;;15.80;65.30;;;;;;4993453;28;20073;-72
2022/10/01 01:37:11;;;;;;;3.00;2.40;;;15.80;65.80;;;;;;4993726;28;20046;-72
2022/10/01 01:39:38;;;;;;;3.28;2.30;;;15.90;65.30;;;;;;4992346;28;20047;-73
2022/10/01 01:42:07;;;;;;;3.03;2.30;;;15.80;65.30;;;;;;4992636;28;20054;-73
2022/10/01 01:44:35;;;;;;;3.75;2.78;;;15.90;65.30;;;;;;4992216;28;20054;-72
2022/10/01 01:47:03;;;;;;;2.83;2.30;;;15.80;65.30;;;;;;4993613;28;20072;-72
2022/10/01 01:49:30;;;;;;;2.80;2.10;;;15.80;65.30;;;;;;4993259;28;20504;-72
2022/10/01 01:51:59;;;;;;;2.30;1.98;;;15.80;65.30;;;;;;4992881;28;20503;-72
2022/10/01 01:54:29;;;;;;;2.95;2.15;;;15.80;65.30;;;;;;4991909;28;20054;-72
2022/10/01 01:56:57;;;;;;;3.85;2.00;;;15.80;65.30;;;;;;4993178;28;20046;-72
2022/10/01 01:59:24;;;;;;;2.60;2.10;;;15.80;65.30;;;;;;4991993;28;20133;-72
2022/10/01 02:01:50;;;;;;;2.80;2.00;;;15.80;65.30;;;;;;4992759;28;20057;-72
2022/10/01 02:04:21;;;;;;;2.75;2.10;;;15.80;65.30;;;;;;4991770;28;20133;-72
2022/10/01 02:07:02;;;;;;;3.55;2.30;;;15.80;65.30;;;;;;4992204;28;20101;-72
2022/10/01 02:09:30;;;;;;;2.90;2.10;;;15.80;65.30;;;;;;4993924;28;20133;-72
2022/10/01 02:12:05;;;;;;;2.45;1.92;;;15.80;65.30;;;;;;4995413;28;20046;-71
2022/10/01 02:14:34;;;;;;;;;;;15.80;65.30;;;;;;4994610;28;20054;-71
2022/10/01 02:17:02;;;;;;;2.30;2.10;;;15.80;65.20;;;;;;4994957;28;19925;-71
2022/10/01 02:19:33;;;;;;;2.97;2.22;;;15.80;65.40;;;;;;4994167;28;20772;-71
2022/10/01 02:22:00;;;;;;;2.78;2.13;;;15.80;65.40;;;;;;4995647;28;20419;-71
2022/10/01 02:24:32;;;;;;;2.75;2.10;;;15.80;65.30;;;;;;4994419;28;20068;-71
2022/10/01 02:26:59;;;;;;;2.30;2.00;;;15.80;65.30;;;;;;4995711;28;20046;-71
2022/10/01 02:29:26;;;;;;;2.85;1.90;;;15.80;65.30;;;;;;4994354;28;20397;-71
2022/10/01 02:31:54;;;;;;;3.58;2.33;;;15.80;65.30;;;;;;4993908;28;20057;-72
2022/10/01 02:34:21;;;;;;;2.95;2.10;;;15.80;65.30;;;;;;4994704;28;20112;-71
2022/10/01 02:36:49;;;;;;;2.58;2.00;;;15.80;65.30;;;;;;4994845;28;20115;-71
2022/10/01 02:39:16;;;;;;;2.53;1.90;;;15.80;65.30;;;;;;4995303;28;20556;-71
2022/10/01 02:41:43;;;;;;;2.72;2.20;;;15.80;65.40;;;;;;4994560;28;20069;-71
2022/10/01 02:44:11;;;;;;;2.05;1.80;;;15.70;65.30;;;;;;4995235;28;20137;-71
2022/10/01 02:46:41;;;;;;;3.25;2.08;;;15.80;65.40;;;;;;4995218;28;20065;-71
2022/10/01 02:49:08;;;;;;;3.92;1.85;;;15.70;65.30;;;;;;4996478;28;20133;-71
2022/10/01 02:51:39;;;;;;;2.90;2.10;;;15.70;65.30;;;;;;4995408;28;20049;-71
2022/10/01 02:54:11;;;;;;;2.97;2.25;;;16.40;68.00;;;;;;4995787;28;20054;-71
2022/10/01 02:59:22;;;;;;;2.95;2.10;;;15.70;65.30;;;;;;4995914;28;20074;-72
2022/10/01 03:01:48;;;;;;;2.33;1.73;;;15.70;65.40;;;;;;4995533;28;20058;-72
2022/10/01 03:04:15;;;;;;;3.38;2.60;;;15.70;65.40;;;;;;4995983;28;20137;-72
2022/10/01 03:06:42;;;;;;;2.90;2.10;;;15.70;65.40;;;;;;4995082;28;20054;-71
2022/10/01 03:09:10;;;;;;;2.30;1.80;;;15.70;65.40;;;;;;4993954;28;20046;-71
2022/10/01 03:11:36;;;;;;;2.20;1.90;;;15.70;65.40;;;;;;4992410;28;20056;-71
2022/10/01 03:14:05;;;;;;;3.17;1.95;;;15.70;65.40;;;;;;4994518;28;20050;-71
2022/10/01 03:16:32;;;;;;;3.28;1.73;;;15.70;65.40;;;;;;4994173;28;20069;-71
2022/10/01 03:18:59;;;;;;;2.60;2.00;;;15.70;65.40;;;;;;4995720;28;20137;-72
2022/10/01 03:21:25;;;;;;;2.53;1.77;;;15.70;65.40;;;;;;4997958;28;20157;-71
2022/10/01 03:23:52;;;;;;;2.72;1.98;;;15.70;65.40;;;;;;4997971;28;20061;-71
2022/10/01 03:26:20;;;;;;;3.35;1.90;;;15.70;65.40;;;;;;4998421;28;20054;-71
2022/10/01 03:28:47;;;;;;;2.25;1.92;;;15.70;65.40;;;;;;4996925;28;20054;-71
2022/10/01 03:31:13;;;;;;;2.28;1.85;;;15.70;65.40;;;;;;4997012;28;20050;-71
2022/10/01 03:33:40;;;;;;;2.63;1.90;;;15.70;65.40;;;;;;4998040;28;20415;-71
2022/10/01 03:36:07;;;;;;;2.38;1.80;;;15.70;65.40;;;;;;4997966;28;20093;-72
2022/10/01 03:38:33;;;;;;;2.20;1.83;;;15.70;65.40;;;;;;4998571;28;20506;-71
2022/10/01 03:41:00;;;;;;;2.55;1.73;;;15.70;65.40;;;;;;4998502;28;20061;-71
2022/10/01 03:43:29;;;;;;;2.00;1.60;;;15.70;65.40;;;;;;4996655;28;20051;-71
2022/10/01 03:45:55;;;;;;;2.42;1.80;;;15.70;65.40;;;;;;4997073;28;20065;-71
2022/10/01 03:48:22;;;;;;;1.98;1.70;;;15.70;65.40;;;;;;4998009;28;20087;-71
2022/10/01 03:50:53;;;;;;;2.42;1.70;;;15.70;65.40;;;;;;4997731;28;20411;-71
2022/10/01 03:53:20;;;;;;;2.42;1.70;;;15.70;65.40;;;;;;4996750;28;20065;-71
2022/10/01 03:55:46;;;;;;;2.97;1.95;;;15.70;65.50;;;;;;4994858;28;20484;-72
2022/10/01 03:58:13;;;;;;;2.15;1.73;;;15.70;65.50;;;;;;4994023;28;20069;-72
2022/10/01 04:00:41;;;;;;;2.22;1.70;;;15.70;65.50;;;;;;4994826;28;20513;-72
2022/10/01 04:03:08;;;;;;;2.50;1.77;;;15.70;65.50;;;;;;4994838;28;20061;-73
2022/10/01 04:05:35;;;;;;;2.65;1.70;;;15.70;65.40;;;;;;4993661;28;20396;-73
2022/10/01 04:08:02;;;;;;;2.10;1.60;;;15.70;65.50;;;;;;4993583;28;20077;-72
2022/10/01 04:10:28;;;;;;;2.67;1.60;;;15.70;68.00;;;;;;4994621;28;20504;-73
2022/10/01 04:12:55;;;;;;;1.73;1.58;;;15.70;65.50;;;;;;4994848;28;20076;-72
2022/10/01 04:15:22;;;;;;;2.03;1.73;;;15.70;65.40;;;;;;4994563;28;20535;-73
2022/10/01 04:17:50;;;;;;;1.70;1.50;;;15.70;65.50;;;;;;4993683;28;20137;-73
2022/10/01 04:20:17;;;;;;;1.73;1.58;;;15.70;65.40;;;;;;4994451;28;20139;-72
2022/10/01 04:22:44;;;;;;;2.13;1.60;;;15.70;65.50;;;;;;4993373;28;20641;-72
2022/10/01 04:25:11;;;;;;;3.08;1.67;;;15.70;65.40;;;;;;4994789;28;20062;-72
2022/10/01 04:27:38;;;;;;;1.60;1.40;;;15.70;65.40;;;;;;4994515;28;20050;-72
2022/10/01 04:30:06;;;;;;;1.90;1.40;;;15.70;65.40;;;;;;4992259;28;20133;-72
2022/10/01 04:32:33;;;;;;;1.95;1.52;;;15.70;65.50;;;;;;4994436;28;20487;-72
2022/10/01 04:35:03;;;;;;;1.65;1.33;;;15.70;65.50;;;;;;4993363;28;20061;-73
2022/10/01 04:37:30;;;;;;;1.70;1.40;;;15.70;65.50;;;;;;4994029;28;20046;-72
2022/10/01 04:39:56;;;;;;;1.92;1.50;;;15.70;65.50;;;;;;4994124;28;20047;-72
2022/10/01 04:42:23;;;;;;;1.80;1.50;;;15.70;65.50;;;;;;4994406;28;20050;-73
2022/10/01 04:44:50;;;;;;;1.92;1.60;;;15.70;65.50;;;;;;4994212;28;20046;-72
2022/10/01 04:47:16;;;;;;;2.28;1.52;;;15.70;65.50;;;;;;4994193;28;20046;-72
2022/10/01 04:49:43;;;;;;;2.08;1.50;;;15.70;65.50;;;;;;4993730;28;20054;-72
2022/10/01 04:52:11;;;;;;;1.95;1.40;;;15.70;65.50;;;;;;4992499;28;20135;-71
2022/10/01 04:54:38;;;;;;;2.00;1.35;;;15.70;65.50;;;;;;4993996;28;20050;-71
2022/10/01 04:57:04;;;;;;;1.50;1.30;;;15.70;65.50;;;;;;4992912;28;20054;-72
2022/10/01 04:59:31;;;;;;;1.58;1.40;;;15.70;65.40;;;;;;4993683;28;20510;-72
2022/10/01 05:01:58;;;;;;;2.03;1.30;;;15.70;65.40;;;;;;4993504;28;20122;-72
2022/10/01 05:04:26;;;;;;;1.40;1.30;;;15.70;65.40;;;;;;4992837;28;20054;-72
2022/10/01 05:06:52;;;;;;;1.40;1.27;;;15.70;65.40;;;;;;4992553;28;20081;-72
2022/10/01 05:09:20;;;;;;;1.75;1.50;;;15.60;67.70;;;;;;4992822;28;20077;-72
2022/10/01 05:11:50;;;;;;;1.40;1.30;;;15.70;65.40;;;;;;4993563;28;20069;-72
2022/10/01 05:14:18;;;;;;;1.60;1.40;;;15.70;65.40;;;;;;4992669;28;20140;-72
2022/10/01 05:16:45;;;;;;;1.73;1.30;;;15.70;65.30;;;;;;4992599;28;20467;-72
2022/10/01 05:19:12;;;;;;;2.10;1.45;;;15.70;65.40;;;;;;4992245;28;20064;-73
2022/10/01 05:21:39;;;;;;;1.40;1.20;;;15.70;65.30;;;;;;4992357;28;20061;-71
2022/10/01 05:24:05;;;;;;;1.30;1.20;;;15.70;65.30;;;;;;4993584;28;20046;-72
2022/10/01 05:26:36;;;;;;;1.98;1.40;;;15.70;65.30;;;;;;4993547;28;20477;-73
2022/10/01 05:29:03;;;;;;;1.60;1.33;;;15.70;65.30;;;;;;4992429;28;20419;-72
2022/10/01 05:31:29;;;;;;;2.13;1.50;;;15.70;65.30;;;;;;4992933;28;20060;-72
2022/10/01 05:33:56;;;;;;;1.50;1.30;;;15.70;65.30;;;;;;4992460;28;20057;-73
2022/10/01 05:36:23;;;;;;;1.67;1.25;;;15.70;65.30;;;;;;4992194;28;20057;-71
2022/10/01 05:38:51;;;;;;;1.35;1.25;;;15.70;65.40;;;;;;4992144;28;20056;-73
2022/10/01 05:41:18;;;;;;;1.33;1.10;;;15.70;65.30;;;;;;4992734;28;20057;-72
2022/10/01 05:43:47;;;;;;;1.85;1.30;;;15.70;65.30;;;;;;4993134;28;20487;-72
2022/10/01 05:46:14;;;;;;;1.38;1.13;;;15.70;65.30;;;;;;4993319;28;20050;-72
2022/10/01 05:48:40;;;;;;;1.58;1.20;;;15.70;65.30;;;;;;4991849;28;20054;-72
2022/10/01 05:51:07;;;;;;;1.20;1.10;;;15.70;65.30;;;;;;4992843;28;20681;-73
2022/10/01 05:53:37;;;;;;;1.35;1.20;;;15.70;65.30;;;;;;4993104;28;20060;-73
2022/10/01 05:56:04;;;;;;;1.20;1.10;;;15.70;65.30;;;;;;4993226;28;20050;-72
2022/10/01 05:58:31;;;;;;;1.25;1.08;;;15.70;65.30;;;;;;4991993;28;20061;-73
2022/10/01 06:00:59;;;;;;;1.23;1.13;;;15.70;65.80;;;;;;4991898;28;20065;-73
2022/10/01 06:03:27;;;;;;;1.65;1.20;;;15.70;65.30;;;;;;4993363;28;20113;-73
2022/10/01 06:05:54;;;;;;;1.30;1.10;;;15.70;65.30;;;;;;4993376;28;20046;-73
2022/10/01 06:08:21;;;;;;;1.23;1.00;;;15.70;65.30;;;;;;4993193;28;20411;-73
2022/10/01 06:10:48;;;;;;;1.33;1.20;;;15.70;65.30;;;;;;4992078;28;20046;-72
2022/10/01 06:13:16;;;;;;;1.33;1.10;;;15.70;65.30;;;;;;4992726;28;20054;-71
2022/10/01 06:15:43;;;;;;;1.30;1.10;;;15.70;65.30;;;;;;4995769;28;20077;-71
2022/10/01 06:18:12;;;;;;;1.25;1.10;;;15.70;65.30;;;;;;4994309;28;20423;-71
2022/10/01 06:20:39;;;;;;;1.20;1.10;;;15.70;65.30;;;;;;4994308;28;20064;-71
2022/10/01 06:23:10;;;;;;;2.88;1.20;;;15.70;65.90;;;;;;4995907;28;20458;-71
2022/10/01 06:25:37;;;;;;;1.40;1.10;;;15.70;65.30;;;;;;4994517;28;20488;-71
2022/10/01 06:28:04;;;;;;;0.95;0.85;;;15.70;65.30;;;;;;4995391;28;20073;-71
2022/10/01 06:30:31;;;;;;;1.25;1.00;;;15.70;65.30;;;;;;4994960;28;20459;-71
2022/10/01 06:33:00;;;;;;;1.77;1.10;;;15.80;65.40;;;;;;4993171;28;20575;-72
2022/10/01 06:35:29;;;;;;;1.27;1.15;;;15.70;65.30;;;;;;4995225;28;20078;-71
2022/10/01 06:37:55;;;;;;;1.10;1.00;;;15.80;65.40;;;;;;4993757;28;20046;-71
2022/10/01 06:40:22;;;;;;;1.20;1.10;;;15.80;65.40;;;;;;4991381;28;20058;-71
2022/10/01 06:42:49;;;;;;;1.58;1.00;;;15.70;65.30;;;;;;4991339;28;20046;-71
2022/10/01 06:45:16;;;;;;;1.83;1.13;;;15.80;65.30;;;;;;4990654;28;20054;-71
2022/10/01 06:47:43;;;;;;;1.33;1.10;;;15.60;66.30;;;;;;4991443;28;20153;-73
2022/10/01 06:50:10;;;;;;;1.35;1.13;;;15.70;65.30;;;;;;4991196;28;20510;-71
2022/10/01 06:52:50;;;;;;;1.10;1.00;;;15.80;65.30;;;;;;4991275;28;20057;-73
2022/10/01 06:55:17;;;;;;;1.20;1.00;;;15.80;65.30;;;;;;4997038;28;20496;-73
2022/10/01 06:57:43;;;;;;;1.23;0.98;;;15.80;66.70;;;;;;4996305;28;20054;-72
2022/10/01 07:00:11;;;;;;;1.08;0.98;;;15.80;65.30;;;;;;4996436;28;20419;-72
2022/10/01 07:02:38;;;;;;;1.17;1.00;;;15.80;65.30;;;;;;4995226;28;20097;-72
2022/10/01 07:05:06;;;;;;;1.50;1.00;;;15.80;65.30;;;;;;4995265;28;20407;-72
2022/10/01 07:07:34;;;;;;;0.93;0.90;;;15.40;66.20;;;;;;4994830;28;20089;-72
2022/10/01 07:10:02;;;;;;;1.10;1.00;;;15.80;65.10;;;;;;4994876;28;20496;-72
2022/10/01 07:12:29;;;;;;;1.42;1.10;;;15.90;65.10;;;;;;4995994;28;20060;-72
2022/10/01 07:14:55;;;;;;;1.13;1.00;;;15.90;65.10;;;;;;4996154;28;20403;-72
2022/10/01 07:17:22;;;;;;;1.55;1.10;;;15.90;65.00;;;;;;4995640;28;20084;-72
2022/10/01 07:19:49;;;;;;;1.13;1.02;;;16.00;65.00;;;;;;4994923;28;20062;-72
2022/10/01 07:22:16;;;;;;;1.48;0.90;;;16.00;65.00;;;;;;4994738;28;20054;-72
2022/10/01 07:24:43;;;;;;;1.20;1.00;;;16.10;64.90;;;;;;4995935;28;20047;-72
2022/10/01 07:27:11;;;;;;;1.20;0.82;;;16.20;64.90;;;;;;4993644;28;20077;-71
2022/10/01 07:29:38;;;;;;;1.73;1.05;;;16.20;64.80;;;;;;4994358;28;20133;-72
2022/10/01 07:32:07;;;;;;;1.00;0.90;;;16.20;64.70;;;;;;4995621;28;20480;-73
2022/10/01 07:34:34;;;;;;;1.10;0.90;;;16.20;64.70;;;;;;4996132;28;20069;-73
2022/10/01 07:37:01;;;;;;;1.10;0.90;;;16.30;64.60;;;;;;4996212;28;20050;-73
2022/10/01 07:39:29;;;;;;;0.80;0.80;;;16.30;64.60;;;;;;4997366;28;20133;-73
2022/10/01 07:41:56;;;;;;;1.17;1.05;;;16.30;64.50;;;;;;4997251;28;20038;-72
2022/10/01 07:44:24;;;;;;;0.93;0.90;;;16.40;67.60;;;;;;4997062;28;20050;-72
2022/10/01 07:46:50;;;;;;;0.95;0.85;;;16.40;64.50;;;;;;4998230;28;20414;-72
2022/10/01 07:49:17;;;;;;;0.75;0.75;;;16.40;64.40;;;;;;4997364;28;20046;-71
2022/10/01 07:51:44;;;;;;;1.08;0.90;;;16.50;64.30;;;;;;4996494;28;20054;-73
2022/10/01 07:54:10;;;;;;;0.70;0.70;;;16.50;64.20;;;;;;4996682;28;20118;-73
2022/10/01 07:56:37;;;;;;;1.10;1.00;;;16.50;64.10;;;;;;4996792;28;20434;-70
2022/10/01 07:59:04;;;;;;;1.00;0.90;;;16.60;64.10;;;;;;4997621;28;20057;-73
2022/10/01 08:01:32;;;;;;;0.68;0.65;;;16.60;64.00;;;;;;4996335;28;20056;-70
2022/10/01 08:03:58;;;;;;;0.80;0.75;;;16.70;64.00;;;;;;4995385;28;20513;-73
2022/10/01 08:06:25;;;;;;;0.85;0.80;;;16.60;63.90;;;;;;4995388;28;20058;-73
2022/10/01 08:08:52;;;;;;;1.10;0.80;;;16.70;63.90;;;;;;4998191;28;20518;-72
2022/10/01 08:11:18;;;;;;;1.13;0.93;;;16.70;63.90;;;;;;4995153;28;20053;-73
2022/10/01 08:13:45;;;;;;;0.80;0.80;;;16.70;63.80;;;;;;4997350;28;20543;-73
2022/10/01 08:16:12;;;;;;;0.88;0.73;;;16.80;63.80;;;;;;4995829;28;20085;-73
2022/10/01 08:18:40;;;;;;;1.00;0.90;;;16.80;63.80;;;;;;4994612;28;20043;-73
2022/10/01 08:21:07;;;;;;;0.70;0.70;;;16.80;63.80;;;;;;4995055;28;20415;-72
2022/10/01 08:23:34;;;;;;;1.02;0.70;;;16.80;63.80;;;;;;4993852;28;20065;-72
2022/10/01 08:26:01;;;;;;;1.33;0.80;;;16.80;63.80;;;;;;4991259;28;20411;-72
2022/10/01 08:28:28;;;;;;;1.00;0.90;;;16.90;63.80;;;;;;4993214;28;20451;-72
2022/10/01 08:30:55;;;;;;;0.70;0.70;;;16.90;63.80;;;;;;4991746;28;20046;-72
2022/10/01 08:33:22;;;;;;;0.80;0.80;;;16.90;63.80;;;;;;4995813;28;20050;-72
2022/10/01 08:35:50;;;;;;;1.00;0.90;;;16.90;63.80;;;;;;4996638;28;20137;-71
2022/10/01 08:38:18;;;;;;;0.82;0.77;;;16.90;63.70;;;;;;4997559;28;20061;-72
2022/10/01 08:40:46;;;;;;;1.15;0.90;;;16.90;63.70;;;;;;4995347;28;20050;-73
2022/10/01 08:43:22;;;;;;;1.25;0.90;;;17.00;63.80;;;;;;4993861;28;20054;-73
2022/10/01 08:45:50;;;;;;;0.88;0.70;;;17.00;63.70;;;;;;4998035;28;20050;-72
2022/10/01 08:48:25;;;;;;;0.80;0.80;;;17.00;63.80;;;;;;4996827;28;20062;-71
2022/10/01 08:50:56;;;;;;;0.70;0.70;;;17.10;63.80;;;;;;4994197;28;20054;-70
2022/10/01 08:53:28;;;;;;;0.85;0.82;;;17.00;63.70;;;;;;4992648;28;20062;-72
2022/10/01 08:55:58;;;;;;;0.80;0.60;;;17.00;63.70;;;;;;4992977;28;20492;-71
2022/10/01 08:58:26;;;;;;;0.80;0.80;;;17.00;64.00;;;;;;4992424;28;20117;-71
2022/10/01 09:00:53;;;;;;;0.70;0.70;;;17.00;63.60;;;;;;4991610;28;20054;-71
2022/10/01 09:03:20;;;;;;;0.85;0.80;;;17.10;63.60;;;;;;4992689;28;20061;-73
2022/10/01 09:05:57;;;;;;;1.17;0.80;;;17.10;63.70;;;;;;4992396;28;20419;-73
2022/10/01 09:08:42;;;;;;;0.95;0.88;;;17.10;63.70;;;;;;4993844;28;20516;-73
2022/10/01 09:11:24;;;;;;;0.87;0.83;;;17.00;63.70;;;;;;4993851;28;20057;-73
2022/10/01 09:14:03;;;;;;;0.90;0.77;;;17.10;63.90;;;;;;4993093;28;20054;-73
2022/10/01 09:16:32;;;;;;;1.02;0.88;;;17.00;63.90;;;;;;4992431;28;20050;-73
2022/10/01 09:19:06;;;;;;;1.00;0.85;;;17.00;63.90;;;;;;4992775;28;20066;-73
2022/10/01 09:21:43;;;;;;;0.73;0.70;;;17.00;64.00;;;;;;4993529;28;20514;-73
2022/10/01 09:24:13;;;;;;;0.70;0.70;;;17.00;64.00;;;;;;4991733;28;20397;-73
2022/10/01 09:26:40;;;;;;;1.05;0.80;;;17.00;64.10;;;;;;4994351;28;20133;-73
2022/10/01 09:29:09;;;;;;;0.90;0.80;;;17.00;64.20;;;;;;4994916;28;20527;-74
2022/10/01 09:31:37;;;;;;;0.80;0.77;;;17.00;64.20;;;;;;4995445;28;20050;-73
2022/10/01 09:34:09;;;;;;;0.93;0.85;;;17.00;64.30;;;;;;4994348;28;20054;-72
2022/10/01 09:36:38;;;;;;;1.45;0.80;;;17.00;64.30;;;;;;4992329;28;20060;-72
2022/10/01 09:39:12;;;;;;;1.67;0.93;;;17.00;64.40;;;;;;4992535;28;20062;-72
2022/10/01 09:41:39;;;;;;;2.60;0.80;;;17.00;64.40;;;;;;4995601;28;20051;-71
2022/10/01 09:44:07;;;;;;;0.77;0.73;;;16.90;64.40;;;;;;4995128;28;20149;-72
2022/10/01 09:46:34;;;;;;;1.00;0.80;;;16.90;64.30;;;;;;4994281;28;20133;-72
2022/10/01 09:49:03;;;;;;;0.80;0.80;;;16.90;64.30;;;;;;4995367;28;20042;-72
2022/10/01 09:51:33;;;;;;;1.55;0.95;;;17.00;64.40;;;;;;4994824;28;20042;-72
2022/10/01 09:54:04;;;;;;;1.60;1.05;;;17.00;64.30;;;;;;4991359;28;20046;-72
2022/10/01 09:56:33;;;;;;;0.80;0.80;;;17.00;64.30;;;;;;4994335;28;20050;-72
2022/10/01 09:59:04;;;;;;;1.08;0.80;;;17.00;64.30;;;;;;4988847;28;20053;-72
2022/10/01 10:01:37;;;;;;;1.30;0.90;;;17.00;64.30;;;;;;4992957;28;20085;-72
2022/10/01 10:04:06;;;;;;;1.00;0.90;;;17.00;64.20;;;;;;4992044;28;20054;-71
2022/10/01 10:06:34;;;;;;;0.98;0.80;;;17.00;64.20;;;;;;4991724;28;20050;-72
2022/10/01 10:09:02;;;;;;;0.90;0.90;;;17.00;64.20;;;;;;4993722;28;20058;-72
2022/10/01 10:11:30;;;;;;;0.65;0.65;;;17.00;64.20;;;;;;4993424;28;20047;-72
2022/10/01 10:13:58;;;;;;;1.05;0.85;;;17.00;64.20;;;;;;4993507;28;20363;-70
2022/10/01 10:16:26;;;;;;;1.42;0.80;;;17.10;64.20;;;;;;4991270;28;20530;-72
2022/10/01 10:18:55;;;;;;;1.20;0.90;;;17.00;64.20;;;;;;4992727;28;20050;-72
2022/10/01 10:21:24;;;;;;;0.95;0.68;;;17.00;64.20;;;;;;4990908;28;20058;-72
2022/10/01 10:23:51;;;;;;;1.20;0.80;;;17.00;64.20;;;;;;4991117;28;20051;-72
2022/10/01 10:26:21;;;;;;;1.00;0.90;;;17.10;64.20;;;;;;4991279;28;20066;-72
2022/10/01 10:28:47;;;;;;;1.42;0.80;;;17.10;64.20;;;;;;4989824;28;20100;-72
2022/10/01 10:31:15;;;;;;;2.40;0.90;;;17.10;64.20;;;;;;4991955;28;20145;-72
2022/10/01 10:33:50;;;;;;;1.17;0.82;;;17.10;64.20;;;;;;4990859;28;20057;-72
2022/10/01 10:36:16;;;;;;;1.35;1.02;;;17.10;64.20;;;;;;4987648;28;20134;-72
2022/10/01 10:38:46;;;;;;;0.90;0.80;;;17.10;64.20;;;;;;4991959;28;20410;-72
2022/10/01 10:41:16;;;;;;;0.70;0.70;;;17.00;64.20;;;;;;4988476;28;20077;-72
2022/10/01 10:43:44;;;;;;;2.03;0.80;;;17.00;64.20;;;;;;4992075;28;20038;-72
2022/10/01 10:46:11;;;;;;;1.38;0.68;;;17.00;64.20;;;;;;4988687;28;20077;-72
2022/10/01 10:48:42;;;;;;;2.40;0.90;;;17.10;64.20;;;;;;4991473;28;20038;-72
2022/10/01 10:51:09;;;;;;;1.83;0.85;;;17.10;64.20;;;;;;4990301;28;20058;-74
2022/10/01 10:53:42;;;;;;;1.27;0.90;;;17.20;64.30;;;;;;4992048;28;20058;-74
2022/10/01 10:56:18;;;;;;;2.00;0.90;;;17.20;64.30;;;;;;4990732;28;20058;-71
2022/10/01 10:58:47;;;;;;;1.33;0.93;;;17.10;64.20;;;;;;4972720;28;20066;-74
2022/10/01 11:01:16;;;;;;;2.63;1.00;;;17.10;64.20;;;;;;4971971;28;20058;-73
2022/10/01 11:03:46;;;;;;;1.50;1.10;;;17.10;64.20;;;;;;4973104;28;20058;-72
2022/10/01 11:06:13;;;;;;;2.00;1.23;;;17.10;64.20;;;;;;4972801;28;20057;-73
2022/10/01 11:08:40;;;;;;;0.88;0.82;;;17.10;64.30;;;;;;4971847;28;20054;-73
2022/10/01 11:11:12;;;;;;;1.88;0.90;;;17.10;64.40;;;;;;4973194;28;20405;-72
2022/10/01 11:14:04;;;;;;;2.85;0.90;;;17.10;64.40;;;;;;4973066;28;20061;-72
2022/10/01 11:16:42;;;;;;;1.25;0.90;;;17.10;64.50;;;;;;4966107;28;20065;-73
2022/10/01 11:19:23;;;;;;;0.93;0.80;;;17.10;64.60;;;;;;4973665;28;20098;-72
2022/10/01 11:22:03;;;;;;;0.95;0.88;;;17.10;64.60;;;;;;4973619;28;20051;-73
2022/10/01 11:24:39;;;;;;;1.05;0.80;;;17.00;64.60;;;;;;4974439;28;20074;-73
2022/10/01 11:27:07;;;;;;;1.10;0.90;;;17.00;64.60;;;;;;4972830;28;20054;-72
2022/10/01 11:29:40;;;;;;;1.60;0.95;;;17.00;64.70;;;;;;4972619;28;20054;-72
2022/10/01 11:32:18;;;;;;;0.80;0.80;;;17.00;64.70;;;;;;4973359;28;20626;-71
2022/10/01 11:35:09;;;;;;;1.33;0.80;;;17.00;64.70;;;;;;4971697;28;20090;-71
2022/10/01 11:37:42;;;;;;;0.73;0.70;;;17.00;64.80;;;;;;4975893;28;20153;-71
2022/10/01 11:40:14;;;;;;;1.85;0.82;;;15.90;66.40;;;;;;4991911;28;20058;-71
2022/10/01 11:42:40;;;;;;;1.58;1.02;;;17.00;64.80;;;;;;4994728;28;20050;-71
2022/10/01 11:45:14;;;;;;;1.08;0.82;;;17.00;64.80;;;;;;4994292;28;20058;-71
2022/10/01 11:47:43;;;;;;;1.92;0.98;;;17.00;64.80;;;;;;4993966;28;20062;-71
2022/10/01 11:50:14;;;;;;;3.97;0.90;;;16.90;64.70;;;;;;4993631;28;20133;-71
2022/10/01 11:52:42;;;;;;;1.33;0.90;;;17.00;64.70;;;;;;4993664;28;20054;-71
2022/10/01 12:00:48;;;;;;;1.10;0.77;;;17.00;64.60;;;;;;4993785;28;20144;-71
2022/10/01 12:03:18;;;;;;;0.60;0.60;;;17.00;64.60;;;;;;4992610;28;20089;-73
2022/10/01 12:05:44;;;;;;;0.82;0.73;;;17.00;64.50;;;;;;4995536;28;20054;-72
2022/10/01 12:08:13;;;;;;;1.55;0.90;;;17.10;64.60;;;;;;4995302;28;20415;-73
2022/10/01 12:10:41;;;;;;;0.93;0.80;;;17.10;64.50;;;;;;4994929;28;20108;-73
2022/10/01 12:13:10;;;;;;;0.80;0.70;;;17.10;64.50;;;;;;4995192;28;20054;-73
2022/10/01 12:15:40;;;;;;;1.58;0.77;;;17.10;64.50;;;;;;4995199;28;20046;-73
2022/10/01 12:18:13;;;;;;;0.85;0.70;;;17.10;65.00;;;;;;4995021;28;20058;-73
2022/10/01 12:20:43;;;;;;;1.23;0.80;;;17.10;64.40;;;;;;4993799;28;20068;-73
2022/10/01 12:23:12;;;;;;;0.90;0.80;;;17.10;64.40;;;;;;4995367;28;20058;-73
2022/10/01 12:25:43;;;;;;;1.85;0.80;;;17.20;64.50;;;;;;4993594;28;20054;-73
2022/10/01 12:28:11;;;;;;;0.77;0.75;;;17.10;64.40;;;;;;4993734;28;20062;-73
2022/10/01 12:30:41;;;;;;;0.98;0.73;;;17.10;64.40;;;;;;4994683;28;20086;-73
2022/10/01 12:33:35;;;;;;;1.65;0.85;;;17.20;64.40;;;;;;4995583;28;20047;-72
2022/10/01 12:36:05;;;;;;;0.95;0.85;;;17.20;64.40;;;;;;4993488;28;20065;-71
2022/10/01 12:38:43;;;;;;;1.13;0.85;;;17.10;64.40;;;;;;4994300;28;20448;-71
2022/10/01 12:41:17;;;;;;;1.98;0.70;;;17.20;64.50;;;;;;4994028;28;20062;-70
2022/10/01 12:43:50;;;;;;;1.48;0.70;;;17.10;64.40;;;;;;4994033;28;20050;-71
2022/10/01 12:46:24;;;;;;;2.88;0.90;;;17.10;64.40;;;;;;4994470;28;20057;-71
2022/10/01 12:48:53;;;;;;;1.45;0.80;;;17.20;64.40;;;;;;4994481;28;20046;-71
2022/10/01 12:51:37;;;;;;;1.60;0.80;;;17.10;64.40;;;;;;4992691;28;20062;-71
2022/10/01 12:54:08;;;;;;;1.67;1.10;;;17.20;64.60;;;;;;4993590;28;20491;-71
2022/10/01 12:56:37;;;;;;;1.38;0.73;;;17.20;64.40;;;;;;4994645;28;20126;-71
2022/10/01 12:59:14;;;;;;;1.48;1.10;;;17.20;64.40;;;;;;4993967;28;20435;-70
2022/10/01 13:01:48;;;;;;;2.38;0.82;;;17.20;64.30;;;;;;4993604;28;20415;-72
2022/10/01 13:04:41;;;;;;;1.83;0.90;;;17.20;64.40;;;;;;4993951;28;20431;-72